Terminal Aerodrome Forecast
Issued by NWS Louisville, KY

Home | Current Version | Previous Version | Text Only | Print | Product List | Glossary On
Versions: 1 2 3 4 5 6 7 8 9 10 11 12 13 14 15 16 17
000
FTUS43 KLMK 241538 AAB
TAFBWG
TAF AMD
KBWG 241538Z 2416/2512 08006KT P6SM SCT024
      TEMPO 2416/2418 BKN024
     FM241800 08008KT P6SM BKN035
     FM250000 VRB03KT P6SM SCT050
     FM250800 00000KT 4SM BR FEW035=

USA.gov is the U.S. government's official web portal to all federal, state and local government web resources and services.